createdAt,value
2023-05-14T00:00:45.537Z,141.74
2023-05-14T00:01:45.618Z,141.38
2023-05-14T00:02:45.796Z,138.88
2023-05-14T00:03:45.852Z,144.84
2023-05-14T00:04:45.858Z,143.95
2023-05-14T00:05:45.930Z,143.71
2023-05-14T00:06:45.995Z,143.96
2023-05-14T00:07:46.078Z,142.31
2023-05-14T00:08:46.153Z,142.33
2023-05-14T00:09:46.242Z,145.41
2023-05-14T00:10:46.324Z,144.15
2023-05-14T00:11:46.388Z,144.84
2023-05-14T00:12:46.454Z,143.31
2023-05-14T00:13:46.529Z,144.01
2023-05-14T00:14:46.612Z,144.94
2023-05-14T00:15:46.773Z,143.41
2023-05-14T00:16:46.766Z,144.18
2023-05-14T00:17:46.879Z,141.77
2023-05-14T00:18:46.949Z,146.79
2023-05-14T00:19:46.996Z,145.56
2023-05-14T00:20:47.090Z,142.40
2023-05-14T00:21:47.162Z,142.52
2023-05-14T00:22:47.237Z,144.22
2023-05-14T00:23:47.321Z,143.20
2023-05-14T00:24:47.392Z,141.71
2023-05-14T00:25:47.474Z,143.54
2023-05-14T00:26:47.541Z,143.25
2023-05-14T00:27:47.625Z,144.16
2023-05-14T00:28:47.698Z,143.43
2023-05-14T00:29:47.765Z,144.08
2023-05-14T00:30:47.836Z,143.46
2023-05-14T00:31:47.994Z,140.02
2023-05-14T00:32:47.998Z,142.61
2023-05-14T00:33:48.065Z,140.63
2023-05-14T00:34:48.130Z,142.31
2023-05-14T00:35:48.275Z,142.06
2023-05-14T00:36:48.305Z,142.97
2023-05-14T00:37:48.396Z,144.41
2023-05-14T00:38:48.460Z,144.56
2023-05-14T00:39:48.546Z,142.61
2023-05-14T00:40:48.631Z,145.02
2023-05-14T00:41:48.710Z,140.07
2023-05-14T00:42:48.788Z,144.39
2023-05-14T00:43:48.875Z,143.20
2023-05-14T00:44:48.958Z,141.46
2023-05-14T00:45:49.037Z,140.29
2023-05-14T00:46:49.142Z,141.98
2023-05-14T00:47:49.200Z,141.07
2023-05-14T00:48:49.266Z,142.28
2023-05-14T00:49:49.350Z,143.92
2023-05-14T00:50:49.428Z,142.54
2023-05-14T00:51:49.508Z,141.42
2023-05-14T00:52:49.589Z,141.29
2023-05-14T00:53:49.674Z,144.69
2023-05-14T00:54:49.749Z,143.51
2023-05-14T00:55:49.818Z,142.31
2023-05-14T00:56:49.898Z,142.95
2023-05-14T00:57:49.976Z,142.92
2023-05-14T00:58:50.051Z,140.98
2023-05-14T00:59:50.134Z,144.68
2023-05-14T01:00:50.263Z,141.21
2023-05-14T01:01:50.288Z,139.98
2023-05-14T01:02:50.438Z,142.86
2023-05-14T01:03:50.536Z,142.60
2023-05-14T01:04:50.536Z,140.51
2023-05-14T01:05:50.595Z,142.07
2023-05-14T01:06:50.685Z,140.42
2023-05-14T01:07:50.756Z,142.27
2023-05-14T01:08:50.853Z,140.52
2023-05-14T01:09:50.910Z,141.67
2023-05-14T01:10:50.987Z,142.95
2023-05-14T01:11:51.073Z,141.90
2023-05-14T01:12:51.129Z,141.24
2023-05-14T01:13:51.213Z,141.59
2023-05-14T01:14:51.289Z,141.18
2023-05-14T01:15:51.359Z,141.08
2023-05-14T01:16:51.550Z,142.08
2023-05-14T01:17:51.554Z,142.02
2023-05-14T01:18:51.665Z,140.77
2023-05-14T01:19:51.663Z,138.39
2023-05-14T01:20:51.737Z,141.54
2023-05-14T01:21:51.817Z,138.61
2023-05-14T01:22:51.900Z,141.23
2023-05-14T01:23:51.981Z,140.29
2023-05-14T01:24:52.054Z,139.39
2023-05-14T01:25:52.121Z,140.72
2023-05-14T01:26:52.209Z,138.04
2023-05-14T01:27:52.291Z,139.34
2023-05-14T01:28:52.358Z,140.99
2023-05-14T01:29:52.433Z,138.17
2023-05-14T01:30:52.504Z,141.96
2023-05-14T01:31:52.640Z,141.96
2023-05-14T01:32:52.730Z,141.70
2023-05-14T01:33:52.746Z,139.63
2023-05-14T01:34:52.813Z,138.32
2023-05-14T01:35:52.877Z,141.23
2023-05-14T01:36:52.956Z,141.94
2023-05-14T01:37:53.044Z,138.25
2023-05-14T01:38:53.120Z,141.25
2023-05-14T01:39:53.246Z,138.69
2023-05-14T01:40:53.377Z,139.93
2023-05-14T01:41:53.362Z,140.85
2023-05-14T01:42:53.502Z,139.97
2023-05-14T01:43:53.531Z,140.21
2023-05-14T01:44:53.613Z,140.26
2023-05-14T01:45:53.715Z,137.81
2023-05-14T01:46:53.754Z,136.59
2023-05-14T01:47:53.888Z,138.26
2023-05-14T01:48:53.917Z,139.45
2023-05-14T01:49:53.997Z,139.35
2023-05-14T01:50:54.065Z,137.85
2023-05-14T01:51:54.148Z,137.02
2023-05-14T01:52:54.223Z,137.32
2023-05-14T01:53:54.314Z,139.31
2023-05-14T01:54:54.385Z,136.98
2023-05-14T01:55:54.453Z,140.56
2023-05-14T01:56:54.537Z,134.60
2023-05-14T01:57:54.636Z,136.48
2023-05-14T01:58:54.690Z,136.20
2023-05-14T01:59:54.747Z,137.04
2023-05-14T02:00:54.805Z,137.62
2023-05-14T02:01:54.939Z,137.08
2023-05-14T02:02:54.955Z,136.07
2023-05-14T02:03:55.014Z,137.21
2023-05-14T02:04:55.038Z,138.23
2023-05-14T02:05:55.108Z,137.75
2023-05-14T02:06:55.171Z,135.02
2023-05-14T02:07:55.226Z,139.41
2023-05-14T02:08:55.278Z,137.40
2023-05-14T02:09:55.350Z,134.62
2023-05-14T02:10:55.396Z,136.34
2023-05-14T02:11:55.442Z,138.20
2023-05-14T02:12:55.484Z,135.09
2023-05-14T02:13:55.540Z,139.48
2023-05-14T02:14:55.591Z,137.55
2023-05-14T02:15:55.700Z,136.56
2023-05-14T02:16:55.733Z,136.16
2023-05-14T02:17:55.863Z,140.02
2023-05-14T02:18:55.930Z,137.15
2023-05-14T02:19:55.982Z,136.43
2023-05-14T02:20:56.058Z,138.22
2023-05-14T02:21:56.132Z,138.49
2023-05-14T02:22:56.206Z,138.57
2023-05-14T02:23:56.297Z,137.89
2023-05-14T02:24:56.392Z,136.25
2023-05-14T02:25:56.451Z,136.29
2023-05-14T02:26:56.536Z,140.29
2023-05-14T02:27:56.624Z,136.34
2023-05-14T02:28:56.701Z,139.14
2023-05-14T02:29:56.786Z,140.61
2023-05-14T02:30:56.869Z,138.20
2023-05-14T02:31:57.169Z,136.15
2023-05-14T02:32:57.102Z,137.70
2023-05-14T02:33:57.099Z,132.69
2023-05-14T02:34:57.174Z,134.91
2023-05-14T02:35:57.275Z,136.31
2023-05-14T02:36:57.344Z,139.57
2023-05-14T02:37:57.424Z,135.11
2023-05-14T02:38:57.524Z,136.88
2023-05-14T02:39:57.569Z,135.31
2023-05-14T02:40:57.654Z,137.32
2023-05-14T02:41:57.743Z,136.43
2023-05-14T02:42:57.808Z,137.99
2023-05-14T02:43:57.904Z,138.23
2023-05-14T02:44:57.982Z,138.87
2023-05-14T02:45:58.061Z,135.43
2023-05-14T02:46:58.180Z,140.35
2023-05-14T02:47:58.280Z,137.09
2023-05-14T02:48:58.305Z,136.68
2023-05-14T02:49:58.381Z,134.60
2023-05-14T02:50:58.473Z,132.94
2023-05-14T02:51:58.542Z,135.44
2023-05-14T02:52:58.620Z,138.34
2023-05-14T02:53:58.698Z,137.95
2023-05-14T02:54:58.774Z,135.79
2023-05-14T02:55:58.861Z,138.11
2023-05-14T02:56:58.936Z,135.30
2023-05-14T02:57:59.040Z,137.45
2023-05-14T02:58:59.156Z,136.15
2023-05-14T02:59:59.218Z,138.19
2023-05-14T03:00:59.289Z,134.37
2023-05-14T03:01:59.362Z,135.96
2023-05-14T03:02:59.444Z,139.18
2023-05-14T03:03:59.487Z,137.25
2023-05-14T03:04:59.577Z,139.92
2023-05-14T03:05:59.661Z,140.25
2023-05-14T03:06:59.750Z,137.25
2023-05-14T03:07:59.831Z,135.04
2023-05-14T03:08:59.920Z,136.67
2023-05-14T03:09:59.995Z,137.23
2023-05-14T03:11:00.097Z,134.36
2023-05-14T03:12:00.164Z,137.22
2023-05-14T03:13:00.292Z,135.25
2023-05-14T03:14:00.327Z,138.02
2023-05-14T03:15:00.411Z,136.63
2023-05-14T03:16:00.506Z,136.26
2023-05-14T03:17:00.690Z,134.93
2023-05-14T03:18:00.721Z,138.27
2023-05-14T03:19:00.823Z,137.23
2023-05-14T03:20:00.858Z,135.31
2023-05-14T03:21:00.954Z,135.96
2023-05-14T03:22:01.020Z,137.89
2023-05-14T03:23:01.122Z,136.78
2023-05-14T03:24:01.196Z,134.78
2023-05-14T03:25:01.299Z,136.33
2023-05-14T03:26:01.390Z,134.32
2023-05-14T03:27:01.453Z,134.82
2023-05-14T03:28:01.527Z,134.48
2023-05-14T03:29:01.616Z,136.39
2023-05-14T03:30:01.704Z,135.50
2023-05-14T03:31:01.889Z,135.90
2023-05-14T03:32:01.882Z,136.52
2023-05-14T03:33:01.996Z,137.81
2023-05-14T03:34:02.065Z,135.90
2023-05-14T03:35:02.130Z,138.93
2023-05-14T03:36:02.227Z,133.95
2023-05-14T03:37:02.313Z,136.50
2023-05-14T03:38:02.403Z,135.20
2023-05-14T03:39:02.476Z,136.67
2023-05-14T03:40:02.556Z,138.12
2023-05-14T03:41:02.677Z,134.22
2023-05-14T03:42:02.725Z,134.88
2023-05-14T03:43:02.808Z,135.58
2023-05-14T03:44:02.892Z,136.52
2023-05-14T03:45:02.975Z,133.40
2023-05-14T03:46:03.063Z,136.16
2023-05-14T03:47:03.153Z,131.45
2023-05-14T03:48:03.306Z,131.91
2023-05-14T03:49:03.433Z,134.46
2023-05-14T03:50:03.413Z,133.60
2023-05-14T03:51:03.507Z,133.77
2023-05-14T03:52:03.582Z,134.76
2023-05-14T03:53:03.669Z,133.32
2023-05-14T03:54:03.770Z,133.77
2023-05-14T03:55:03.839Z,130.66
2023-05-14T03:56:03.926Z,132.98
2023-05-14T03:57:04.012Z,134.35
2023-05-14T03:58:04.097Z,132.20
2023-05-14T03:59:04.185Z,134.33
2023-05-14T04:00:04.261Z,131.25
2023-05-14T04:01:04.348Z,135.11
2023-05-14T04:02:04.425Z,133.85
2023-05-14T04:03:04.642Z,134.57
2023-05-14T04:04:04.681Z,137.66
2023-05-14T04:05:04.698Z,130.21
2023-05-14T04:06:04.788Z,134.94
2023-05-14T04:07:04.873Z,136.02
2023-05-14T04:08:04.964Z,132.11
2023-05-14T04:09:05.037Z,136.52
2023-05-14T04:10:05.146Z,133.13
2023-05-14T04:11:05.219Z,132.01
2023-05-14T04:12:05.302Z,134.76
2023-05-14T04:13:05.391Z,134.05
2023-05-14T04:14:05.471Z,131.48
2023-05-14T04:15:05.559Z,133.79
2023-05-14T04:16:05.692Z,131.65
2023-05-14T04:17:05.730Z,132.17
2023-05-14T04:18:05.849Z,132.22
2023-05-14T04:19:05.967Z,133.90
2023-05-14T04:20:06.924Z,132.39
2023-05-14T04:21:06.049Z,133.37
2023-05-14T04:22:06.132Z,131.88
2023-05-14T04:23:06.204Z,135.06
2023-05-14T04:24:06.295Z,134.46
2023-05-14T04:25:06.372Z,133.04
2023-05-14T04:26:06.500Z,133.57
2023-05-14T04:27:06.541Z,133.76
2023-05-14T04:28:06.606Z,130.92
2023-05-14T04:29:06.656Z,132.93
2023-05-14T04:30:06.725Z,132.87
2023-05-14T04:31:06.808Z,133.46
2023-05-14T04:32:06.923Z,135.45
2023-05-14T04:33:07.021Z,133.33
2023-05-14T04:34:07.047Z,135.60
2023-05-14T04:35:07.138Z,131.05
2023-05-14T04:36:07.231Z,132.94
2023-05-14T04:37:07.286Z,133.44
2023-05-14T04:38:07.372Z,132.92
2023-05-14T04:39:07.456Z,134.82
2023-05-14T04:40:07.529Z,132.93
2023-05-14T04:41:07.606Z,131.50
2023-05-14T04:42:07.690Z,131.05
2023-05-14T04:43:07.790Z,131.19
2023-05-14T04:44:07.864Z,133.61
2023-05-14T04:45:07.945Z,132.14
2023-05-14T04:46:08.065Z,130.84
2023-05-14T04:47:08.126Z,134.52
2023-05-14T04:48:08.261Z,130.05
2023-05-14T04:49:08.293Z,131.84
2023-05-14T04:50:08.382Z,132.75
2023-05-14T04:51:08.474Z,131.94
2023-05-14T04:52:08.559Z,130.80
2023-05-14T04:53:08.649Z,130.13
2023-05-14T04:54:08.765Z,130.73
2023-05-14T04:55:08.791Z,132.85
2023-05-14T04:56:08.869Z,131.04
2023-05-14T04:57:08.952Z,132.12
2023-05-14T04:58:09.042Z,131.61
2023-05-14T04:59:09.117Z,130.52
2023-05-14T05:00:09.192Z,131.74
2023-05-14T05:01:09.338Z,134.76
2023-05-14T05:02:09.357Z,131.78
2023-05-14T05:03:09.532Z,131.75
2023-05-14T05:04:09.600Z,132.90
2023-05-14T05:05:09.604Z,129.94
2023-05-14T05:06:09.692Z,132.32
2023-05-14T05:07:09.768Z,130.14
2023-05-14T05:08:09.857Z,131.01
2023-05-14T05:09:09.942Z,130.74
2023-05-14T05:10:10.031Z,130.23
2023-05-14T05:11:10.110Z,131.70
2023-05-14T05:12:10.185Z,131.82
2023-05-14T05:13:10.270Z,131.34
2023-05-14T05:14:10.361Z,130.78
2023-05-14T05:15:10.466Z,129.40
2023-05-14T05:16:10.662Z,128.37
2023-05-14T05:17:10.624Z,131.52
2023-05-14T05:18:10.710Z,131.73
2023-05-14T05:19:10.831Z,128.42
2023-05-14T05:20:10.865Z,128.16
2023-05-14T05:21:10.949Z,128.78
2023-05-14T05:22:11.053Z,132.96
2023-05-14T05:23:11.124Z,131.57
2023-05-14T05:24:11.215Z,131.32
2023-05-14T05:25:11.308Z,131.19
2023-05-14T05:26:11.406Z,128.45
2023-05-14T05:27:11.488Z,128.88
2023-05-14T05:28:11.569Z,130.45
2023-05-14T05:29:11.657Z,130.16
2023-05-14T05:30:11.745Z,128.43
2023-05-14T05:31:11.879Z,130.24
2023-05-14T05:32:11.906Z,131.06
2023-05-14T05:33:12.056Z,129.33
2023-05-14T05:34:12.093Z,129.82
2023-05-14T05:35:12.167Z,129.17
2023-05-14T05:36:12.249Z,127.63
2023-05-14T05:37:12.337Z,130.62
2023-05-14T05:38:12.427Z,128.97
2023-05-14T05:39:12.480Z,129.08
2023-05-14T05:40:12.553Z,129.69
2023-05-14T05:41:12.632Z,127.00
2023-05-14T05:42:12.726Z,127.30
2023-05-14T05:43:12.797Z,131.35
2023-05-14T05:44:12.882Z,130.87
2023-05-14T05:45:12.971Z,129.89
2023-05-14T05:46:13.110Z,129.94
2023-05-14T05:47:13.182Z,127.54
2023-05-14T05:48:13.227Z,125.46
2023-05-14T05:49:13.303Z,129.04
2023-05-14T05:50:13.392Z,130.24
2023-05-14T05:51:13.477Z,129.19
2023-05-14T05:52:13.558Z,126.36
2023-05-14T05:53:13.735Z,128.98
2023-05-14T05:54:13.722Z,126.34
2023-05-14T05:55:13.816Z,129.63
2023-05-14T05:56:13.893Z,125.45
2023-05-14T05:57:13.985Z,128.47
2023-05-14T05:58:14.073Z,125.16
2023-05-14T05:59:14.150Z,125.67
2023-05-14T06:00:14.253Z,127.67
2023-05-14T06:01:14.319Z,128.79
2023-05-14T06:02:14.460Z,130.36
2023-05-14T06:03:14.565Z,128.20
2023-05-14T06:04:14.587Z,125.07
2023-05-14T06:05:14.741Z,128.31
2023-05-14T06:06:14.745Z,128.19
2023-05-14T06:07:14.831Z,129.42
2023-05-14T06:08:14.920Z,126.31
2023-05-14T06:09:15.005Z,128.63
2023-05-14T06:10:15.092Z,126.53
2023-05-14T06:11:15.184Z,127.84
2023-05-14T06:12:15.291Z,125.37
2023-05-14T06:13:15.361Z,130.93
2023-05-14T06:14:15.436Z,125.61
2023-05-14T06:15:15.514Z,124.67
2023-05-14T06:16:15.610Z,125.89
2023-05-14T06:17:15.642Z,128.00
2023-05-14T06:18:15.737Z,128.01
2023-05-14T06:19:15.950Z,127.19
2023-05-14T06:20:15.927Z,128.09
2023-05-14T06:21:16.016Z,126.98
2023-05-14T06:22:16.109Z,126.32
2023-05-14T06:23:16.201Z,127.86
2023-05-14T06:24:16.292Z,128.33
2023-05-14T06:25:16.404Z,128.14
2023-05-14T06:26:16.479Z,128.06
2023-05-14T06:27:16.564Z,128.74
2023-05-14T06:28:16.653Z,128.27
2023-05-14T06:29:16.743Z,128.25
2023-05-14T06:30:16.834Z,124.93
2023-05-14T06:31:16.934Z,125.73
2023-05-14T06:32:17.050Z,126.13
2023-05-14T06:33:18.748Z,127.79
2023-05-14T06:34:17.097Z,129.38
2023-05-14T06:35:17.114Z,128.88
2023-05-14T06:36:17.120Z,129.31
2023-05-14T06:37:17.144Z,128.96
2023-05-14T06:38:17.178Z,127.95
2023-05-14T06:39:17.179Z,127.42
2023-05-14T06:40:17.211Z,124.09
2023-05-14T06:41:17.230Z,124.91
2023-05-14T06:42:17.248Z,127.31
2023-05-14T06:43:17.247Z,125.43
2023-05-14T06:44:17.261Z,123.07
2023-05-14T06:45:17.267Z,125.75
2023-05-14T06:46:17.309Z,127.02
2023-05-14T06:47:17.302Z,125.29
2023-05-14T06:48:17.390Z,126.99
2023-05-14T06:49:17.448Z,121.79
2023-05-14T06:50:17.369Z,127.79
2023-05-14T06:51:17.382Z,124.54
2023-05-14T06:52:17.404Z,126.73
2023-05-14T06:53:17.423Z,124.95
2023-05-14T06:54:17.439Z,124.12
2023-05-14T06:55:17.454Z,128.15
2023-05-14T06:56:17.490Z,126.19
2023-05-14T06:57:17.491Z,125.73
2023-05-14T06:58:17.515Z,127.90
2023-05-14T06:59:17.515Z,124.84
2023-05-14T07:00:17.545Z,128.26
2023-05-14T07:01:17.622Z,123.73
2023-05-14T07:02:17.590Z,125.98
2023-05-14T07:03:17.604Z,126.42
2023-05-14T07:04:17.648Z,127.01
2023-05-14T07:05:17.668Z,128.03
2023-05-14T07:06:17.714Z,125.97
2023-05-14T07:07:17.793Z,125.57
2023-05-14T07:08:17.893Z,125.18
2023-05-14T07:09:17.982Z,122.62
2023-05-14T07:10:18.080Z,126.53
2023-05-14T07:11:18.161Z,126.72
2023-05-14T07:12:18.240Z,121.27
2023-05-14T07:13:18.311Z,126.46
2023-05-14T07:14:18.405Z,122.58
2023-05-14T07:15:18.489Z,126.89
2023-05-14T07:16:18.563Z,124.60
2023-05-14T07:17:18.712Z,123.78
2023-05-14T07:18:18.740Z,122.77
2023-05-14T07:19:18.859Z,124.58
2023-05-14T07:20:18.924Z,125.37
2023-05-14T07:21:18.995Z,125.15
2023-05-14T07:22:19.101Z,122.52
2023-05-14T07:23:20.000Z,122.08
2023-05-14T07:24:19.286Z,124.44
2023-05-14T07:25:19.351Z,122.97
2023-05-14T07:26:19.444Z,120.09
2023-05-14T07:27:19.533Z,126.41
2023-05-14T07:28:19.618Z,126.45
2023-05-14T07:29:19.704Z,122.03
2023-05-14T07:30:19.794Z,125.30
2023-05-14T07:31:19.930Z,123.35
2023-05-14T07:32:19.969Z,122.64
2023-05-14T07:33:20.055Z,122.94
2023-05-14T07:34:20.137Z,122.84
2023-05-14T07:35:20.217Z,119.36
2023-05-14T07:36:20.304Z,122.43
2023-05-14T07:37:21.956Z,123.18
2023-05-14T07:38:20.400Z,120.80
2023-05-14T07:39:20.423Z,121.60
2023-05-14T07:40:20.451Z,119.82
2023-05-14T07:41:20.459Z,119.27
2023-05-14T07:42:34.467Z,118.99
2023-05-14T07:43:21.492Z,119.30
2023-05-14T07:44:20.498Z,119.91
2023-05-14T07:45:20.519Z,121.47
2023-05-14T07:46:20.545Z,121.27
2023-05-14T07:47:20.582Z,123.73
2023-05-14T07:48:20.595Z,118.60
2023-05-14T07:49:20.599Z,119.44
2023-05-14T07:50:20.610Z,119.54
2023-05-14T07:51:20.618Z,121.41
2023-05-14T07:52:20.665Z,121.64
2023-05-14T07:53:21.502Z,118.86
2023-05-14T07:54:20.819Z,120.84
2023-05-14T07:55:20.874Z,114.63
2023-05-14T07:56:20.950Z,114.01
2023-05-14T07:57:21.029Z,118.28
2023-05-14T07:58:21.080Z,116.65
2023-05-14T07:59:21.156Z,117.92
2023-05-14T08:00:21.352Z,118.00
2023-05-14T08:01:21.292Z,119.18
2023-05-14T08:02:21.558Z,115.89
2023-05-14T08:03:21.538Z,113.11
2023-05-14T08:04:21.524Z,115.67
2023-05-14T08:05:21.556Z,116.46
2023-05-14T08:06:21.681Z,115.07
2023-05-14T08:07:21.698Z,118.22
2023-05-14T08:08:21.757Z,115.82
2023-05-14T08:09:21.816Z,117.15
2023-05-14T08:10:22.026Z,117.03
2023-05-14T08:11:22.033Z,115.06
2023-05-14T08:12:22.014Z,112.91
2023-05-14T08:13:22.067Z,114.17
2023-05-14T08:14:22.124Z,118.44
2023-05-14T08:15:22.194Z,116.84
2023-05-14T08:16:22.326Z,115.62
2023-05-14T08:17:22.326Z,116.72
2023-05-14T08:18:22.366Z,116.15
2023-05-14T08:19:22.436Z,115.08
2023-05-14T08:20:22.632Z,115.59
2023-05-14T08:21:22.533Z,116.75
2023-05-14T08:22:22.594Z,115.88
2023-05-14T08:23:22.651Z,112.79
2023-05-14T08:24:22.724Z,115.51
2023-05-14T08:25:22.769Z,115.31
2023-05-14T08:26:22.816Z,114.53
2023-05-14T08:27:22.900Z,115.39
2023-05-14T08:28:22.931Z,113.21
2023-05-14T08:29:22.997Z,115.35
2023-05-14T08:30:23.471Z,115.09
2023-05-14T08:31:23.197Z,111.87
2023-05-14T08:32:24.065Z,111.96
2023-05-14T08:33:23.200Z,115.41
2023-05-14T08:34:23.250Z,111.11
2023-05-14T08:35:23.294Z,115.56
2023-05-14T08:36:23.355Z,114.29
2023-05-14T08:37:23.410Z,112.90
2023-05-14T08:38:23.463Z,114.12
2023-05-14T08:39:23.504Z,109.40
2023-05-14T08:40:23.763Z,110.44
2023-05-14T08:41:23.604Z,113.10
2023-05-14T08:42:23.653Z,113.28
2023-05-14T08:43:23.699Z,113.35
2023-05-14T08:44:23.740Z,112.57
2023-05-14T08:45:23.792Z,109.25
2023-05-14T08:46:23.834Z,111.38
2023-05-14T08:47:24.096Z,114.46
2023-05-14T08:48:24.016Z,112.23
2023-05-14T08:49:23.984Z,113.04
2023-05-14T08:50:24.080Z,112.43
2023-05-14T08:51:24.096Z,115.04
2023-05-14T08:52:24.150Z,115.09
2023-05-14T08:53:24.210Z,111.44
2023-05-14T08:54:24.252Z,112.43
2023-05-14T08:55:25.054Z,115.34
2023-05-14T08:56:24.365Z,113.58
2023-05-14T08:57:24.421Z,113.19
2023-05-14T08:58:24.484Z,115.28
2023-05-14T08:59:24.573Z,112.84
2023-05-14T09:00:24.860Z,113.80
2023-05-14T09:01:24.674Z,115.82
2023-05-14T09:02:24.738Z,114.77
2023-05-14T09:03:24.748Z,113.24
2023-05-14T09:04:24.773Z,114.04
2023-05-14T09:05:24.820Z,114.66
2023-05-14T09:06:24.864Z,113.59
2023-05-14T09:07:24.913Z,113.07
2023-05-14T09:08:24.972Z,117.66
2023-05-14T09:09:25.026Z,114.06
2023-05-14T09:10:25.338Z,113.97
2023-05-14T09:11:25.117Z,117.26
2023-05-14T09:12:25.170Z,113.90
2023-05-14T09:13:26.977Z,115.18
2023-05-14T09:14:25.190Z,117.07
2023-05-14T09:15:25.205Z,116.56
2023-05-14T09:16:25.250Z,117.29
2023-05-14T09:17:25.282Z,112.36
2023-05-14T09:18:25.360Z,117.45
2023-05-14T09:19:25.273Z,116.15
2023-05-14T09:20:26.647Z,114.66
2023-05-14T09:21:25.285Z,120.37
2023-05-14T09:22:25.286Z,119.84
2023-05-14T09:23:25.285Z,117.20
2023-05-14T09:24:25.358Z,117.44
2023-05-14T09:25:25.316Z,116.74
2023-05-14T09:26:25.323Z,118.63
2023-05-14T09:27:25.340Z,118.36
2023-05-14T09:28:25.368Z,116.83
2023-05-14T09:29:25.361Z,116.72
2023-05-14T09:30:25.548Z,117.42
2023-05-14T09:31:25.425Z,116.32
2023-05-14T09:32:25.463Z,115.47
2023-05-14T09:33:25.392Z,118.16
2023-05-14T09:34:25.401Z,115.37
2023-05-14T09:35:25.433Z,120.33
2023-05-14T09:36:25.421Z,118.20
2023-05-14T09:37:25.439Z,115.10
2023-05-14T09:38:25.446Z,115.14
2023-05-14T09:39:25.525Z,115.74
2023-05-14T09:40:25.621Z,117.43
2023-05-14T09:41:25.472Z,117.15
2023-05-14T09:42:25.499Z,117.81
2023-05-14T09:43:25.535Z,117.04
2023-05-14T09:44:25.585Z,117.35
2023-05-14T09:45:25.653Z,116.82
2023-05-14T09:46:25.682Z,116.54
2023-05-14T09:47:25.872Z,116.89
2023-05-14T09:48:25.807Z,117.84
2023-05-14T09:49:25.836Z,114.99
2023-05-14T09:50:26.150Z,119.36
2023-05-14T09:51:25.932Z,118.62
2023-05-14T09:52:25.989Z,117.65
2023-05-14T09:53:26.041Z,117.87
2023-05-14T09:54:26.086Z,117.59
2023-05-14T09:55:26.134Z,119.16
2023-05-14T09:56:26.183Z,117.55
2023-05-14T09:57:26.226Z,117.67
2023-05-14T09:58:26.283Z,119.91
2023-05-14T09:59:26.328Z,118.03
2023-05-14T10:00:26.500Z,117.01
2023-05-14T10:01:26.457Z,118.81
2023-05-14T10:02:26.537Z,118.51
2023-05-14T10:03:26.562Z,119.38
2023-05-14T10:04:26.650Z,119.44
2023-05-14T10:05:26.664Z,118.01
2023-05-14T10:06:26.713Z,115.73
2023-05-14T10:07:26.777Z,118.25
2023-05-14T10:08:26.805Z,118.52
2023-05-14T10:09:26.851Z,119.09
2023-05-14T10:10:27.385Z,121.14
2023-05-14T10:11:26.952Z,119.17
2023-05-14T10:12:27.017Z,117.42
2023-05-14T10:13:27.063Z,117.56
2023-05-14T10:14:27.127Z,119.16
2023-05-14T10:15:27.186Z,120.17
2023-05-14T10:16:27.270Z,119.85
2023-05-14T10:17:27.371Z,118.53
2023-05-14T10:18:27.389Z,121.93
2023-05-14T10:19:27.446Z,121.59
2023-05-14T10:20:27.462Z,121.22
2023-05-14T10:21:27.514Z,120.76
2023-05-14T10:22:27.563Z,119.80
2023-05-14T10:23:27.612Z,121.35
2023-05-14T10:24:27.664Z,120.64
2023-05-14T10:25:27.712Z,122.04
2023-05-14T10:26:27.784Z,122.34
2023-05-14T10:27:27.833Z,116.84
2023-05-14T10:28:27.889Z,119.15
2023-05-14T10:29:27.947Z,121.23
2023-05-14T10:30:28.007Z,120.93
2023-05-14T10:31:28.144Z,122.86
2023-05-14T10:32:28.157Z,123.56
2023-05-14T10:33:28.177Z,120.51
2023-05-14T10:34:28.240Z,122.76
2023-05-14T10:35:28.284Z,120.83
2023-05-14T10:36:28.339Z,121.32
2023-05-14T10:37:28.394Z,121.99
2023-05-14T10:38:28.465Z,122.21
2023-05-14T10:39:28.505Z,121.16
2023-05-14T10:40:28.564Z,120.57
2023-05-14T10:41:28.630Z,121.24
2023-05-14T10:42:28.681Z,120.07
2023-05-14T10:43:28.788Z,121.71
2023-05-14T10:44:28.808Z,120.87
2023-05-14T10:45:28.846Z,120.39
2023-05-14T10:46:28.930Z,121.96
2023-05-14T10:47:28.965Z,121.28
2023-05-14T10:48:29.029Z,121.48
2023-05-14T10:50:29.093Z,123.44
2023-05-14T10:51:29.149Z,121.14
2023-05-14T10:52:29.123Z,123.18
2023-05-14T10:53:29.138Z,120.08
2023-05-14T10:54:29.156Z,119.47
2023-05-14T10:55:29.170Z,120.68
2023-05-14T10:56:29.182Z,119.86
2023-05-14T10:57:29.196Z,120.44
2023-05-14T10:58:29.203Z,122.13
2023-05-14T10:59:29.225Z,121.70
2023-05-14T11:00:29.231Z,118.53
2023-05-14T11:01:29.300Z,118.57
2023-05-14T11:02:29.307Z,122.09
2023-05-14T11:03:29.310Z,120.96
2023-05-14T11:04:29.304Z,119.23
2023-05-14T11:05:29.323Z,116.87
2023-05-14T11:06:29.342Z,117.36
2023-05-14T11:07:29.348Z,120.51
2023-05-14T11:08:29.551Z,121.32
2023-05-14T11:09:29.383Z,121.33
2023-05-14T11:10:29.405Z,119.94
2023-05-14T11:11:29.412Z,119.40
2023-05-14T11:12:29.433Z,120.26
2023-05-14T11:13:29.444Z,118.34
2023-05-14T11:14:29.474Z,117.67
2023-05-14T11:15:29.485Z,120.89
2023-05-14T11:16:29.512Z,117.78
2023-05-14T11:17:29.560Z,118.68
2023-05-14T11:18:29.642Z,115.73
2023-05-14T11:19:29.564Z,116.34
2023-05-14T11:20:29.562Z,118.22
2023-05-14T11:21:29.607Z,119.15
2023-05-14T11:22:29.578Z,115.50
2023-05-14T11:23:29.589Z,118.21
2023-05-14T11:24:29.601Z,118.22
2023-05-14T11:25:29.630Z,118.22
2023-05-14T11:26:29.677Z,119.24
2023-05-14T11:27:29.664Z,116.83
2023-05-14T11:28:29.655Z,117.03
2023-05-14T11:29:29.656Z,118.97
2023-05-14T11:30:29.678Z,115.33
2023-05-14T11:31:29.718Z,117.10
2023-05-14T11:32:29.753Z,116.66
2023-05-14T11:33:29.731Z,115.63
2023-05-14T11:34:29.751Z,115.82
2023-05-14T11:35:29.765Z,117.07
2023-05-14T11:36:29.787Z,117.76
2023-05-14T11:37:29.804Z,116.03
2023-05-14T11:38:29.815Z,116.98
2023-05-14T11:39:29.829Z,116.32
2023-05-14T11:40:29.847Z,115.94
2023-05-14T11:41:29.856Z,118.33
2023-05-14T11:42:29.872Z,118.21
2023-05-14T11:43:29.905Z,118.02
2023-05-14T11:44:29.952Z,118.59
2023-05-14T11:45:30.036Z,116.15
2023-05-14T11:46:30.137Z,116.52
2023-05-14T11:47:30.107Z,116.48
2023-05-14T11:48:30.124Z,117.00
2023-05-14T11:49:30.164Z,116.51
2023-05-14T11:50:30.223Z,113.95
2023-05-14T11:51:30.273Z,118.49
2023-05-14T11:52:30.338Z,115.16
2023-05-14T11:53:30.399Z,117.10
2023-05-14T11:54:30.455Z,117.27
2023-05-14T11:55:30.488Z,116.33
2023-05-14T11:56:30.527Z,118.74
2023-05-14T11:57:30.574Z,116.69
2023-05-14T11:58:30.637Z,117.34
2023-05-14T11:59:30.679Z,118.43
2023-05-14T12:00:30.733Z,116.31
2023-05-14T12:01:30.775Z,118.06
2023-05-14T12:02:30.919Z,118.33
2023-05-14T12:03:31.075Z,119.19
2023-05-14T12:04:31.012Z,116.72
2023-05-14T12:05:30.982Z,117.88
2023-05-14T12:06:31.030Z,119.99
2023-05-14T12:07:31.076Z,118.57
2023-05-14T12:08:31.125Z,119.24
2023-05-14T12:09:31.167Z,121.24
2023-05-14T12:10:31.211Z,118.70
2023-05-14T12:11:31.261Z,119.04
2023-05-14T12:12:31.310Z,118.98
2023-05-14T12:13:31.386Z,117.74
2023-05-14T12:14:31.416Z,118.92
2023-05-14T12:15:31.461Z,117.78
2023-05-14T12:16:32.213Z,119.74
2023-05-14T12:17:31.571Z,119.05
2023-05-14T12:18:31.868Z,117.47
2023-05-14T12:19:31.666Z,121.34
2023-05-14T12:20:31.714Z,118.30
2023-05-14T12:21:31.756Z,118.03
2023-05-14T12:22:31.810Z,119.63
2023-05-14T12:23:31.854Z,116.57
2023-05-14T12:24:31.904Z,118.29
2023-05-14T12:25:31.961Z,117.38
2023-05-14T12:26:32.009Z,117.50
2023-05-14T12:27:32.063Z,117.40
2023-05-14T12:28:32.118Z,115.30
2023-05-14T12:29:32.165Z,116.14
2023-05-14T12:30:32.218Z,117.40